sensor_id;sensor_type;location;lat;lon;timestamp;temperature;humidity
12438;DHT22;6283;51.330;12.374;2023-05-10T00:01:05;13.50;1.00
12438;DHT22;6283;51.330;12.374;2023-05-10T00:03:31;13.40;1.00
12438;DHT22;6283;51.330;12.374;2023-05-10T00:05:56;13.50;1.00
12438;DHT22;6283;51.330;12.374;2023-05-10T00:08:22;13.60;1.00
12438;DHT22;6283;51.330;12.374;2023-05-10T00:10:48;13.40;1.00
12438;DHT22;6283;51.330;12.374;2023-05-10T00:13:14;13.60;1.00
12438;DHT22;6283;51.330;12.374;2023-05-10T00:15:40;13.50;1.00
12438;DHT22;6283;51.330;12.374;2023-05-10T00:18:05;13.20;1.00
12438;DHT22;6283;51.330;12.374;2023-05-10T00:20:31;13.30;1.00
12438;DHT22;6283;51.330;12.374;2023-05-10T00:22:56;13.30;1.00
12438;DHT22;6283;51.330;12.374;2023-05-10T00:25:25;13.40;1.00
12438;DHT22;6283;51.330;12.374;2023-05-10T00:27:51;13.10;1.00
12438;DHT22;6283;51.330;12.374;2023-05-10T00:30:16;13.00;1.00
12438;DHT22;6283;51.330;12.374;2023-05-10T00:32:42;13.10;1.00
12438;DHT22;6283;51.330;12.374;2023-05-10T00:35:09;13.10;1.00
12438;DHT22;6283;51.330;12.374;2023-05-10T00:37:35;12.90;1.00
12438;DHT22;6283;51.330;12.374;2023-05-10T00:40:00;12.80;1.00
12438;DHT22;6283;51.330;12.374;2023-05-10T00:42:26;12.70;1.00
12438;DHT22;6283;51.330;12.374;2023-05-10T00:44:51;12.90;1.00
12438;DHT22;6283;51.330;12.374;2023-05-10T00:47:17;12.80;1.00
12438;DHT22;6283;51.330;12.374;2023-05-10T00:49:43;12.80;1.00
12438;DHT22;6283;51.330;12.374;2023-05-10T00:52:09;12.80;1.00
12438;DHT22;6283;51.330;12.374;2023-05-10T00:54:35;13.10;1.00
12438;DHT22;6283;51.330;12.374;2023-05-10T00:57:01;12.60;1.00
12438;DHT22;6283;51.330;12.374;2023-05-10T00:59:27;12.80;1.00
12438;DHT22;6283;51.330;12.374;2023-05-10T01:01:53;12.80;1.00
12438;DHT22;6283;51.330;12.374;2023-05-10T01:04:19;12.70;1.00
12438;DHT22;6283;51.330;12.374;2023-05-10T01:06:51;12.70;1.00
12438;DHT22;6283;51.330;12.374;2023-05-10T01:09:18;12.90;1.00
12438;DHT22;6283;51.330;12.374;2023-05-10T01:11:44;12.70;1.00
12438;DHT22;6283;51.330;12.374;2023-05-10T01:14:11;12.80;1.00
12438;DHT22;6283;51.330;12.374;2023-05-10T01:16:38;12.80;1.00
12438;DHT22;6283;51.330;12.374;2023-05-10T01:19:16;12.80;1.00
12438;DHT22;6283;51.330;12.374;2023-05-10T01:27:25;12.60;1.00
12438;DHT22;6283;51.330;12.374;2023-05-10T01:33:00;12.50;1.00
12438;DHT22;6283;51.330;12.374;2023-05-10T01:35:45;12.40;1.00
12438;DHT22;6283;51.330;12.374;2023-05-10T01:38:19;12.50;1.00
12438;DHT22;6283;51.330;12.374;2023-05-10T01:40:58;12.70;1.00
12438;DHT22;6283;51.330;12.374;2023-05-10T01:43:32;12.50;1.00
12438;DHT22;6283;51.330;12.374;2023-05-10T01:46:13;12.40;1.00
12438;DHT22;6283;51.330;12.374;2023-05-10T01:48:52;12.60;1.00
12438;DHT22;6283;51.330;12.374;2023-05-10T01:51:24;12.30;1.00
12438;DHT22;6283;51.330;12.374;2023-05-10T01:53:56;12.30;1.00
12438;DHT22;6283;51.330;12.374;2023-05-10T01:56:26;12.30;1.00
12438;DHT22;6283;51.330;12.374;2023-05-10T01:58:54;12.40;1.00
12438;DHT22;6283;51.330;12.374;2023-05-10T02:01:21;12.20;1.00
12438;DHT22;6283;51.330;12.374;2023-05-10T02:03:48;12.30;1.00
12438;DHT22;6283;51.330;12.374;2023-05-10T02:06:16;12.40;1.00
12438;DHT22;6283;51.330;12.374;2023-05-10T02:08:46;12.50;1.00
12438;DHT22;6283;51.330;12.374;2023-05-10T02:11:13;12.40;1.00
12438;DHT22;6283;51.330;12.374;2023-05-10T02:13:39;12.30;1.00
12438;DHT22;6283;51.330;12.374;2023-05-10T02:16:07;12.40;1.00
12438;DHT22;6283;51.330;12.374;2023-05-10T02:18:34;12.40;1.00
12438;DHT22;6283;51.330;12.374;2023-05-10T02:21:02;12.30;1.00
12438;DHT22;6283;51.330;12.374;2023-05-10T02:23:28;12.10;1.00
12438;DHT22;6283;51.330;12.374;2023-05-10T02:25:58;12.20;1.00
12438;DHT22;6283;51.330;12.374;2023-05-10T02:28:26;12.00;1.00
12438;DHT22;6283;51.330;12.374;2023-05-10T02:30:53;12.10;1.00
12438;DHT22;6283;51.330;12.374;2023-05-10T02:33:20;12.40;1.00
12438;DHT22;6283;51.330;12.374;2023-05-10T02:35:50;12.20;1.00
12438;DHT22;6283;51.330;12.374;2023-05-10T02:38:18;12.00;1.00
12438;DHT22;6283;51.330;12.374;2023-05-10T02:40:44;11.90;1.00
12438;DHT22;6283;51.330;12.374;2023-05-10T02:43:12;11.90;1.00
12438;DHT22;6283;51.330;12.374;2023-05-10T02:45:40;12.20;1.00
12438;DHT22;6283;51.330;12.374;2023-05-10T02:48:06;12.10;1.00
12438;DHT22;6283;51.330;12.374;2023-05-10T02:50:33;12.30;1.00
12438;DHT22;6283;51.330;12.374;2023-05-10T02:53:09;12.10;1.00
12438;DHT22;6283;51.330;12.374;2023-05-10T02:55:38;11.90;1.00
12438;DHT22;6283;51.330;12.374;2023-05-10T02:58:06;12.10;1.00
12438;DHT22;6283;51.330;12.374;2023-05-10T03:00:32;11.90;1.00
12438;DHT22;6283;51.330;12.374;2023-05-10T03:02:58;12.10;1.00
12438;DHT22;6283;51.330;12.374;2023-05-10T03:05:24;11.90;1.00
12438;DHT22;6283;51.330;12.374;2023-05-10T03:07:50;11.90;1.00
12438;DHT22;6283;51.330;12.374;2023-05-10T03:10:18;11.90;1.00
12438;DHT22;6283;51.330;12.374;2023-05-10T03:13:07;11.80;1.00
12438;DHT22;6283;51.330;12.374;2023-05-10T03:16:04;12.00;1.00
12438;DHT22;6283;51.330;12.374;2023-05-10T03:18:42;11.90;1.00
12438;DHT22;6283;51.330;12.374;2023-05-10T03:21:11;11.60;1.00
12438;DHT22;6283;51.330;12.374;2023-05-10T03:23:46;11.80;1.00
12438;DHT22;6283;51.330;12.374;2023-05-10T03:26:24;11.80;1.00
12438;DHT22;6283;51.330;12.374;2023-05-10T03:28:52;11.90;1.00
12438;DHT22;6283;51.330;12.374;2023-05-10T03:31:18;11.90;1.00
12438;DHT22;6283;51.330;12.374;2023-05-10T03:33:51;11.80;1.00
12438;DHT22;6283;51.330;12.374;2023-05-10T03:36:18;11.80;1.00
12438;DHT22;6283;51.330;12.374;2023-05-10T03:38:44;11.70;1.00
12438;DHT22;6283;51.330;12.374;2023-05-10T03:41:09;11.70;1.00
12438;DHT22;6283;51.330;12.374;2023-05-10T03:43:35;11.80;1.00
12438;DHT22;6283;51.330;12.374;2023-05-10T03:46:03;11.70;1.00
12438;DHT22;6283;51.330;12.374;2023-05-10T03:48:29;11.80;1.00
12438;DHT22;6283;51.330;12.374;2023-05-10T03:50:54;11.70;1.00
12438;DHT22;6283;51.330;12.374;2023-05-10T03:53:20;11.90;1.00
12438;DHT22;6283;51.330;12.374;2023-05-10T03:55:45;11.90;1.00
12438;DHT22;6283;51.330;12.374;2023-05-10T03:58:11;12.10;1.00
12438;DHT22;6283;51.330;12.374;2023-05-10T04:00:37;11.80;1.00
12438;DHT22;6283;51.330;12.374;2023-05-10T04:03:09;11.90;1.00
12438;DHT22;6283;51.330;12.374;2023-05-10T04:05:35;11.80;1.00
12438;DHT22;6283;51.330;12.374;2023-05-10T04:08:00;12.00;1.00
12438;DHT22;6283;51.330;12.374;2023-05-10T04:10:26;12.20;1.00
12438;DHT22;6283;51.330;12.374;2023-05-10T04:12:52;12.20;1.00
12438;DHT22;6283;51.330;12.374;2023-05-10T04:15:17;12.20;1.00
12438;DHT22;6283;51.330;12.374;2023-05-10T04:17:43;12.00;1.00
12438;DHT22;6283;51.330;12.374;2023-05-10T04:20:09;12.30;1.00
12438;DHT22;6283;51.330;12.374;2023-05-10T04:22:35;12.10;1.00
12438;DHT22;6283;51.330;12.374;2023-05-10T04:25:01;12.20;1.00
12438;DHT22;6283;51.330;12.374;2023-05-10T04:27:26;12.60;1.00
12438;DHT22;6283;51.330;12.374;2023-05-10T04:29:52;12.50;1.00
12438;DHT22;6283;51.330;12.374;2023-05-10T04:32:18;12.50;1.00
12438;DHT22;6283;51.330;12.374;2023-05-10T04:34:44;12.80;1.00
12438;DHT22;6283;51.330;12.374;2023-05-10T04:37:10;12.70;1.00
12438;DHT22;6283;51.330;12.374;2023-05-10T04:39:35;12.70;1.00
12438;DHT22;6283;51.330;12.374;2023-05-10T04:42:02;12.70;1.00
12438;DHT22;6283;51.330;12.374;2023-05-10T04:44:28;12.90;1.00
12438;DHT22;6283;51.330;12.374;2023-05-10T04:46:55;13.10;1.00
12438;DHT22;6283;51.330;12.374;2023-05-10T04:49:20;13.10;1.00
12438;DHT22;6283;51.330;12.374;2023-05-10T04:51:46;13.20;1.00
12438;DHT22;6283;51.330;12.374;2023-05-10T04:54:11;13.10;1.00
12438;DHT22;6283;51.330;12.374;2023-05-10T04:56:37;13.30;1.00
12438;DHT22;6283;51.330;12.374;2023-05-10T04:59:03;13.40;1.00
12438;DHT22;6283;51.330;12.374;2023-05-10T05:01:29;13.60;1.00
12438;DHT22;6283;51.330;12.374;2023-05-10T05:03:55;13.70;1.00
12438;DHT22;6283;51.330;12.374;2023-05-10T05:06:20;13.80;1.00
12438;DHT22;6283;51.330;12.374;2023-05-10T05:08:46;13.90;1.00
12438;DHT22;6283;51.330;12.374;2023-05-10T05:11:12;14.00;1.00
12438;DHT22;6283;51.330;12.374;2023-05-10T05:13:38;14.10;1.00
12438;DHT22;6283;51.330;12.374;2023-05-10T05:16:04;14.10;1.00
12438;DHT22;6283;51.330;12.374;2023-05-10T05:18:30;14.20;1.00
12438;DHT22;6283;51.330;12.374;2023-05-10T05:20:56;14.30;1.00
12438;DHT22;6283;51.330;12.374;2023-05-10T05:23:21;14.40;1.00
12438;DHT22;6283;51.330;12.374;2023-05-10T05:25:53;14.50;1.00
12438;DHT22;6283;51.330;12.374;2023-05-10T05:28:21;14.70;1.00
12438;DHT22;6283;51.330;12.374;2023-05-10T05:30:47;14.60;1.00
12438;DHT22;6283;51.330;12.374;2023-05-10T05:33:13;14.70;1.00
12438;DHT22;6283;51.330;12.374;2023-05-10T05:35:41;14.80;1.00
12438;DHT22;6283;51.330;12.374;2023-05-10T05:38:08;14.90;1.00
12438;DHT22;6283;51.330;12.374;2023-05-10T05:40:34;15.00;1.00
12438;DHT22;6283;51.330;12.374;2023-05-10T05:42:59;15.10;1.00
12438;DHT22;6283;51.330;12.374;2023-05-10T05:45:25;15.20;1.00
12438;DHT22;6283;51.330;12.374;2023-05-10T05:47:50;15.30;1.00
12438;DHT22;6283;51.330;12.374;2023-05-10T05:50:16;15.30;1.00
12438;DHT22;6283;51.330;12.374;2023-05-10T05:52:42;15.40;1.00
12438;DHT22;6283;51.330;12.374;2023-05-10T05:55:08;15.40;1.00
12438;DHT22;6283;51.330;12.374;2023-05-10T05:57:33;15.40;1.00
12438;DHT22;6283;51.330;12.374;2023-05-10T05:59:59;15.40;1.00
12438;DHT22;6283;51.330;12.374;2023-05-10T06:02:28;15.40;1.00
12438;DHT22;6283;51.330;12.374;2023-05-10T06:04:54;15.40;1.00
12438;DHT22;6283;51.330;12.374;2023-05-10T06:07:19;15.40;1.00
12438;DHT22;6283;51.330;12.374;2023-05-10T06:09:45;15.40;1.00
12438;DHT22;6283;51.330;12.374;2023-05-10T06:12:11;15.50;1.00
12438;DHT22;6283;51.330;12.374;2023-05-10T06:14:37;15.50;1.00
12438;DHT22;6283;51.330;12.374;2023-05-10T06:17:02;15.50;1.00
12438;DHT22;6283;51.330;12.374;2023-05-10T06:19:30;15.50;1.00
12438;DHT22;6283;51.330;12.374;2023-05-10T06:21:56;15.50;1.00
12438;DHT22;6283;51.330;12.374;2023-05-10T06:24:21;15.60;1.00
12438;DHT22;6283;51.330;12.374;2023-05-10T06:26:47;15.70;1.00
12438;DHT22;6283;51.330;12.374;2023-05-10T06:29:15;15.80;1.00
12438;DHT22;6283;51.330;12.374;2023-05-10T06:31:40;15.80;1.00
12438;DHT22;6283;51.330;12.374;2023-05-10T06:34:06;15.90;1.00
12438;DHT22;6283;51.330;12.374;2023-05-10T06:36:33;16.00;1.00
12438;DHT22;6283;51.330;12.374;2023-05-10T06:38:59;16.00;1.00
12438;DHT22;6283;51.330;12.374;2023-05-10T06:41:24;16.10;1.00
12438;DHT22;6283;51.330;12.374;2023-05-10T06:43:50;16.20;1.00
12438;DHT22;6283;51.330;12.374;2023-05-10T06:46:16;16.20;1.00
12438;DHT22;6283;51.330;12.374;2023-05-10T06:48:41;16.30;1.00
12438;DHT22;6283;51.330;12.374;2023-05-10T06:51:07;16.50;1.00
12438;DHT22;6283;51.330;12.374;2023-05-10T06:53:32;16.70;1.00
12438;DHT22;6283;51.330;12.374;2023-05-10T06:55:58;16.80;1.00
12438;DHT22;6283;51.330;12.374;2023-05-10T06:58:24;16.90;1.00
12438;DHT22;6283;51.330;12.374;2023-05-10T07:00:50;17.10;1.00
12438;DHT22;6283;51.330;12.374;2023-05-10T07:03:15;17.20;1.00
12438;DHT22;6283;51.330;12.374;2023-05-10T07:05:41;17.20;1.00
12438;DHT22;6283;51.330;12.374;2023-05-10T07:08:07;17.20;1.00
12438;DHT22;6283;51.330;12.374;2023-05-10T07:10:33;17.20;1.00
12438;DHT22;6283;51.330;12.374;2023-05-10T07:12:59;17.10;1.00
12438;DHT22;6283;51.330;12.374;2023-05-10T07:15:26;17.10;1.00
12438;DHT22;6283;51.330;12.374;2023-05-10T07:17:52;17.20;1.00
12438;DHT22;6283;51.330;12.374;2023-05-10T07:20:18;17.20;1.00
12438;DHT22;6283;51.330;12.374;2023-05-10T07:22:44;17.20;1.00
12438;DHT22;6283;51.330;12.374;2023-05-10T07:25:09;17.30;1.00
12438;DHT22;6283;51.330;12.374;2023-05-10T07:27:36;17.30;1.00
12438;DHT22;6283;51.330;12.374;2023-05-10T07:30:01;17.40;1.00
12438;DHT22;6283;51.330;12.374;2023-05-10T07:32:27;17.50;1.00
12438;DHT22;6283;51.330;12.374;2023-05-10T07:34:53;17.60;1.00
12438;DHT22;6283;51.330;12.374;2023-05-10T07:37:19;17.70;1.00
12438;DHT22;6283;51.330;12.374;2023-05-10T07:39:45;17.80;1.00
12438;DHT22;6283;51.330;12.374;2023-05-10T07:42:10;17.90;1.00
12438;DHT22;6283;51.330;12.374;2023-05-10T07:44:36;17.90;1.00
12438;DHT22;6283;51.330;12.374;2023-05-10T07:47:02;18.00;1.00
12438;DHT22;6283;51.330;12.374;2023-05-10T07:49:27;17.90;1.00
12438;DHT22;6283;51.330;12.374;2023-05-10T07:51:53;17.80;1.00
12438;DHT22;6283;51.330;12.374;2023-05-10T07:54:18;17.70;1.00
12438;DHT22;6283;51.330;12.374;2023-05-10T07:56:44;17.60;1.00
12438;DHT22;6283;51.330;12.374;2023-05-10T07:59:15;17.60;1.00
12438;DHT22;6283;51.330;12.374;2023-05-10T08:01:44;17.60;1.00
12438;DHT22;6283;51.330;12.374;2023-05-10T08:04:10;17.50;1.00
12438;DHT22;6283;51.330;12.374;2023-05-10T08:06:36;17.40;1.00
12438;DHT22;6283;51.330;12.374;2023-05-10T08:09:02;17.40;1.00
12438;DHT22;6283;51.330;12.374;2023-05-10T08:11:28;17.20;1.00
12438;DHT22;6283;51.330;12.374;2023-05-10T08:13:53;17.20;1.00
12438;DHT22;6283;51.330;12.374;2023-05-10T08:16:19;17.10;1.00
12438;DHT22;6283;51.330;12.374;2023-05-10T08:18:46;17.10;1.00
12438;DHT22;6283;51.330;12.374;2023-05-10T08:21:12;17.10;1.00
12438;DHT22;6283;51.330;12.374;2023-05-10T08:23:39;17.20;1.00
12438;DHT22;6283;51.330;12.374;2023-05-10T08:26:04;17.20;1.00
12438;DHT22;6283;51.330;12.374;2023-05-10T08:28:30;17.20;1.00
12438;DHT22;6283;51.330;12.374;2023-05-10T08:30:56;17.10;1.00
12438;DHT22;6283;51.330;12.374;2023-05-10T08:33:22;17.00;1.00
12438;DHT22;6283;51.330;12.374;2023-05-10T08:35:48;17.00;1.00
12438;DHT22;6283;51.330;12.374;2023-05-10T08:38:14;16.90;1.00
12438;DHT22;6283;51.330;12.374;2023-05-10T08:40:42;16.90;1.00
12438;DHT22;6283;51.330;12.374;2023-05-10T08:43:10;16.70;1.00
12438;DHT22;6283;51.330;12.374;2023-05-10T08:45:41;16.60;1.00
12438;DHT22;6283;51.330;12.374;2023-05-10T08:48:09;16.60;1.00
12438;DHT22;6283;51.330;12.374;2023-05-10T08:50:39;16.60;1.00
12438;DHT22;6283;51.330;12.374;2023-05-10T08:53:09;16.50;1.00
12438;DHT22;6283;51.330;12.374;2023-05-10T08:55:36;16.50;1.00
12438;DHT22;6283;51.330;12.374;2023-05-10T08:58:04;16.40;1.00
12438;DHT22;6283;51.330;12.374;2023-05-10T09:00:31;16.30;1.00
12438;DHT22;6283;51.330;12.374;2023-05-10T09:02:58;16.30;1.00
12438;DHT22;6283;51.330;12.374;2023-05-10T09:05:24;16.30;1.00
12438;DHT22;6283;51.330;12.374;2023-05-10T09:07:49;16.30;1.00
12438;DHT22;6283;51.330;12.374;2023-05-10T09:10:15;16.30;1.00
12438;DHT22;6283;51.330;12.374;2023-05-10T09:12:41;16.20;1.00
12438;DHT22;6283;51.330;12.374;2023-05-10T09:15:09;16.10;1.00
12438;DHT22;6283;51.330;12.374;2023-05-10T09:17:36;16.00;1.00
12438;DHT22;6283;51.330;12.374;2023-05-10T09:20:03;15.90;1.00
12438;DHT22;6283;51.330;12.374;2023-05-10T09:22:33;15.80;1.00
12438;DHT22;6283;51.330;12.374;2023-05-10T09:25:13;15.70;1.00
12438;DHT22;6283;51.330;12.374;2023-05-10T09:27:44;15.60;1.00
12438;DHT22;6283;51.330;12.374;2023-05-10T09:30:11;15.60;1.00
12438;DHT22;6283;51.330;12.374;2023-05-10T09:32:45;15.60;1.00
12438;DHT22;6283;51.330;12.374;2023-05-10T09:35:15;15.60;1.00
12438;DHT22;6283;51.330;12.374;2023-05-10T09:37:48;15.50;1.00
12438;DHT22;6283;51.330;12.374;2023-05-10T09:40:18;15.40;1.00
12438;DHT22;6283;51.330;12.374;2023-05-10T09:43:08;15.40;1.00
12438;DHT22;6283;51.330;12.374;2023-05-10T09:45:36;15.30;1.00
12438;DHT22;6283;51.330;12.374;2023-05-10T09:48:02;15.40;1.00
12438;DHT22;6283;51.330;12.374;2023-05-10T09:50:29;15.40;1.00
12438;DHT22;6283;51.330;12.374;2023-05-10T09:55:26;15.40;1.00
12438;DHT22;6283;51.330;12.374;2023-05-10T09:58:01;15.40;1.00
12438;DHT22;6283;51.330;12.374;2023-05-10T10:00:28;15.40;1.00
12438;DHT22;6283;51.330;12.374;2023-05-10T10:02:58;15.40;1.00
12438;DHT22;6283;51.330;12.374;2023-05-10T10:05:34;15.50;1.00
12438;DHT22;6283;51.330;12.374;2023-05-10T10:08:02;15.40;1.00
12438;DHT22;6283;51.330;12.374;2023-05-10T10:10:28;15.50;1.00
12438;DHT22;6283;51.330;12.374;2023-05-10T10:12:54;15.50;1.00
12438;DHT22;6283;51.330;12.374;2023-05-10T10:15:21;15.50;1.00
12438;DHT22;6283;51.330;12.374;2023-05-10T10:17:48;15.60;1.00
12438;DHT22;6283;51.330;12.374;2023-05-10T10:20:15;15.60;1.00
12438;DHT22;6283;51.330;12.374;2023-05-10T10:22:40;15.60;1.00
12438;DHT22;6283;51.330;12.374;2023-05-10T10:25:07;15.60;1.00
12438;DHT22;6283;51.330;12.374;2023-05-10T10:30:29;15.80;30.30
12438;DHT22;6283;51.330;12.374;2023-05-10T10:35:53;15.80;32.70
12438;DHT22;6283;51.330;12.374;2023-05-10T10:38:19;15.90;35.20
12438;DHT22;6283;51.330;12.374;2023-05-10T10:40:46;15.90;45.40
12438;DHT22;6283;51.330;12.374;2023-05-10T10:43:28;15.90;47.20
12438;DHT22;6283;51.330;12.374;2023-05-10T10:46:13;15.90;38.50
12438;DHT22;6283;51.330;12.374;2023-05-10T10:48:40;15.80;42.80
12438;DHT22;6283;51.330;12.374;2023-05-10T10:51:06;15.70;46.10
12438;DHT22;6283;51.330;12.374;2023-05-10T10:53:32;15.70;62.50
12438;DHT22;6283;51.330;12.374;2023-05-10T10:56:07;15.70;75.90
12438;DHT22;6283;51.330;12.374;2023-05-10T10:58:35;15.70;84.60
12438;DHT22;6283;51.330;12.374;2023-05-10T11:03:37;15.70;99.90
12438;DHT22;6283;51.330;12.374;2023-05-10T11:06:02;15.70;99.90
12438;DHT22;6283;51.330;12.374;2023-05-10T11:08:30;15.70;99.90
12438;DHT22;6283;51.330;12.374;2023-05-10T11:13:42;15.70;99.90
12438;DHT22;6283;51.330;12.374;2023-05-10T11:16:13;15.70;99.90
12438;DHT22;6283;51.330;12.374;2023-05-10T11:18:39;15.70;99.90
12438;DHT22;6283;51.330;12.374;2023-05-10T11:21:08;15.80;99.90
12438;DHT22;6283;51.330;12.374;2023-05-10T11:26:07;16.00;99.90
12438;DHT22;6283;51.330;12.374;2023-05-10T11:28:40;16.00;99.90
12438;DHT22;6283;51.330;12.374;2023-05-10T11:31:06;16.10;99.90
12438;DHT22;6283;51.330;12.374;2023-05-10T11:33:45;16.20;99.90
12438;DHT22;6283;51.330;12.374;2023-05-10T11:36:28;16.20;99.90
12438;DHT22;6283;51.330;12.374;2023-05-10T11:38:55;16.30;99.90
12438;DHT22;6283;51.330;12.374;2023-05-10T11:41:23;16.50;99.90
12438;DHT22;6283;51.330;12.374;2023-05-10T11:43:53;16.50;99.90
12438;DHT22;6283;51.330;12.374;2023-05-10T11:46:24;16.60;99.90
12438;DHT22;6283;51.330;12.374;2023-05-10T11:48:52;16.70;99.90
12438;DHT22;6283;51.330;12.374;2023-05-10T11:51:25;16.80;99.90
12438;DHT22;6283;51.330;12.374;2023-05-10T11:53:55;16.80;99.90
12438;DHT22;6283;51.330;12.374;2023-05-10T11:56:21;16.80;99.90
12438;DHT22;6283;51.330;12.374;2023-05-10T11:58:54;16.90;99.90
12438;DHT22;6283;51.330;12.374;2023-05-10T12:01:21;16.90;99.90
12438;DHT22;6283;51.330;12.374;2023-05-10T12:03:48;17.10;99.90
12438;DHT22;6283;51.330;12.374;2023-05-10T12:06:14;17.20;99.90
12438;DHT22;6283;51.330;12.374;2023-05-10T12:08:45;17.20;99.90
12438;DHT22;6283;51.330;12.374;2023-05-10T12:11:12;17.20;99.90
12438;DHT22;6283;51.330;12.374;2023-05-10T12:13:43;17.20;99.90
12438;DHT22;6283;51.330;12.374;2023-05-10T12:16:25;17.30;99.90
12438;DHT22;6283;51.330;12.374;2023-05-10T12:18:52;17.30;99.90
12438;DHT22;6283;51.330;12.374;2023-05-10T12:21:20;17.40;99.90
12438;DHT22;6283;51.330;12.374;2023-05-10T12:23:48;17.50;99.90
12438;DHT22;6283;51.330;12.374;2023-05-10T12:26:14;17.50;99.90
12438;DHT22;6283;51.330;12.374;2023-05-10T12:28:40;17.60;99.90
12438;DHT22;6283;51.330;12.374;2023-05-10T12:31:06;17.60;99.90
12438;DHT22;6283;51.330;12.374;2023-05-10T12:33:50;17.70;99.90
12438;DHT22;6283;51.330;12.374;2023-05-10T12:36:16;17.70;99.90
12438;DHT22;6283;51.330;12.374;2023-05-10T12:38:48;17.70;99.90
12438;DHT22;6283;51.330;12.374;2023-05-10T12:41:16;17.70;99.90
12438;DHT22;6283;51.330;12.374;2023-05-10T12:43:42;17.70;99.90
12438;DHT22;6283;51.330;12.374;2023-05-10T12:46:12;17.70;99.90
12438;DHT22;6283;51.330;12.374;2023-05-10T12:48:39;17.70;99.90
12438;DHT22;6283;51.330;12.374;2023-05-10T12:51:06;17.70;99.90
12438;DHT22;6283;51.330;12.374;2023-05-10T12:53:37;17.70;99.90
12438;DHT22;6283;51.330;12.374;2023-05-10T12:56:03;17.70;99.90
12438;DHT22;6283;51.330;12.374;2023-05-10T12:58:29;17.70;99.90
12438;DHT22;6283;51.330;12.374;2023-05-10T13:00:54;17.80;99.90
12438;DHT22;6283;51.330;12.374;2023-05-10T13:03:21;17.80;99.90
12438;DHT22;6283;51.330;12.374;2023-05-10T13:05:47;17.90;99.90
12438;DHT22;6283;51.330;12.374;2023-05-10T13:08:13;17.90;99.90
12438;DHT22;6283;51.330;12.374;2023-05-10T13:10:39;17.90;99.90
12438;DHT22;6283;51.330;12.374;2023-05-10T13:13:04;18.00;99.90
12438;DHT22;6283;51.330;12.374;2023-05-10T13:15:30;18.00;99.90
12438;DHT22;6283;51.330;12.374;2023-05-10T13:17:56;18.00;91.40
12438;DHT22;6283;51.330;12.374;2023-05-10T13:20:22;18.00;88.40
12438;DHT22;6283;51.330;12.374;2023-05-10T13:22:47;18.10;81.20
12438;DHT22;6283;51.330;12.374;2023-05-10T13:25:13;18.10;74.60
12438;DHT22;6283;51.330;12.374;2023-05-10T13:27:39;18.20;67.80
12438;DHT22;6283;51.330;12.374;2023-05-10T13:30:06;18.30;66.50
12438;DHT22;6283;51.330;12.374;2023-05-10T13:32:33;18.30;71.60
12438;DHT22;6283;51.330;12.374;2023-05-10T13:34:59;18.30;54.10
12438;DHT22;6283;51.330;12.374;2023-05-10T13:37:24;18.20;52.50
12438;DHT22;6283;51.330;12.374;2023-05-10T13:39:50;18.20;57.50
12438;DHT22;6283;51.330;12.374;2023-05-10T13:42:15;18.20;54.80
12438;DHT22;6283;51.330;12.374;2023-05-10T13:44:41;18.20;58.30
12438;DHT22;6283;51.330;12.374;2023-05-10T13:47:07;18.20;59.60
12438;DHT22;6283;51.330;12.374;2023-05-10T13:49:33;18.10;58.50
12438;DHT22;6283;51.330;12.374;2023-05-10T13:51:59;18.10;58.90
12438;DHT22;6283;51.330;12.374;2023-05-10T13:54:31;18.00;62.10
12438;DHT22;6283;51.330;12.374;2023-05-10T13:56:56;18.00;87.40
12438;DHT22;6283;51.330;12.374;2023-05-10T13:59:22;17.90;64.10
12438;DHT22;6283;51.330;12.374;2023-05-10T14:01:48;17.90;76.90
12438;DHT22;6283;51.330;12.374;2023-05-10T14:04:14;17.90;75.80
12438;DHT22;6283;51.330;12.374;2023-05-10T14:06:39;17.80;88.20
12438;DHT22;6283;51.330;12.374;2023-05-10T14:09:05;17.80;87.10
12438;DHT22;6283;51.330;12.374;2023-05-10T14:11:31;17.70;80.10
12438;DHT22;6283;51.330;12.374;2023-05-10T14:13:57;17.70;83.00
12438;DHT22;6283;51.330;12.374;2023-05-10T14:16:22;17.60;91.90
12438;DHT22;6283;51.330;12.374;2023-05-10T14:18:48;17.60;99.90
12438;DHT22;6283;51.330;12.374;2023-05-10T14:21:13;17.50;99.90
12438;DHT22;6283;51.330;12.374;2023-05-10T14:23:39;17.50;99.90
12438;DHT22;6283;51.330;12.374;2023-05-10T14:26:05;17.40;99.90
12438;DHT22;6283;51.330;12.374;2023-05-10T14:28:34;17.40;99.90
12438;DHT22;6283;51.330;12.374;2023-05-10T14:31:00;17.40;99.90
12438;DHT22;6283;51.330;12.374;2023-05-10T14:33:28;17.30;99.90
12438;DHT22;6283;51.330;12.374;2023-05-10T14:35:54;17.20;99.90
12438;DHT22;6283;51.330;12.374;2023-05-10T14:38:21;17.20;99.90
12438;DHT22;6283;51.330;12.374;2023-05-10T14:40:47;17.20;99.90
12438;DHT22;6283;51.330;12.374;2023-05-10T14:43:13;17.10;99.90
12438;DHT22;6283;51.330;12.374;2023-05-10T14:45:38;16.90;99.90
12438;DHT22;6283;51.330;12.374;2023-05-10T14:48:04;16.80;99.90
12438;DHT22;6283;51.330;12.374;2023-05-10T14:50:30;16.70;99.90
12438;DHT22;6283;51.330;12.374;2023-05-10T14:52:57;16.50;1.00
12438;DHT22;6283;51.330;12.374;2023-05-10T14:55:22;16.30;1.00
12438;DHT22;6283;51.330;12.374;2023-05-10T14:57:48;16.20;1.00
12438;DHT22;6283;51.330;12.374;2023-05-10T15:00:16;16.10;1.00
12438;DHT22;6283;51.330;12.374;2023-05-10T15:02:41;16.00;1.00
12438;DHT22;6283;51.330;12.374;2023-05-10T15:05:07;15.80;8.30
12438;DHT22;6283;51.330;12.374;2023-05-10T15:07:33;15.70;1.00
12438;DHT22;6283;51.330;12.374;2023-05-10T15:09:58;15.50;1.00
12438;DHT22;6283;51.330;12.374;2023-05-10T15:12:24;15.40;5.60
12438;DHT22;6283;51.330;12.374;2023-05-10T15:14:50;15.30;99.90
12438;DHT22;6283;51.330;12.374;2023-05-10T15:17:15;15.20;99.90
12438;DHT22;6283;51.330;12.374;2023-05-10T15:19:41;15.20;99.90
12438;DHT22;6283;51.330;12.374;2023-05-10T15:22:10;15.20;1.00
12438;DHT22;6283;51.330;12.374;2023-05-10T15:24:35;15.10;1.00
12438;DHT22;6283;51.330;12.374;2023-05-10T15:27:01;15.10;1.00
12438;DHT22;6283;51.330;12.374;2023-05-10T15:29:27;15.00;1.00
12438;DHT22;6283;51.330;12.374;2023-05-10T15:31:53;15.00;1.00
12438;DHT22;6283;51.330;12.374;2023-05-10T15:34:18;15.00;1.00
12438;DHT22;6283;51.330;12.374;2023-05-10T15:36:45;15.10;1.00
12438;DHT22;6283;51.330;12.374;2023-05-10T15:39:11;14.90;1.00
12438;DHT22;6283;51.330;12.374;2023-05-10T15:41:37;14.50;1.00
12438;DHT22;6283;51.330;12.374;2023-05-10T15:44:05;14.80;1.00
12438;DHT22;6283;51.330;12.374;2023-05-10T15:46:31;15.00;83.20
12438;DHT22;6283;51.330;12.374;2023-05-10T15:48:59;14.90;15.40
12438;DHT22;6283;51.330;12.374;2023-05-10T15:51:25;14.90;9.80
12438;DHT22;6283;51.330;12.374;2023-05-10T15:53:51;14.80;34.40
12438;DHT22;6283;51.330;12.374;2023-05-10T15:56:17;15.20;38.50
12438;DHT22;6283;51.330;12.374;2023-05-10T15:58:42;15.00;76.70
12438;DHT22;6283;51.330;12.374;2023-05-10T16:01:09;15.00;54.50
12438;DHT22;6283;51.330;12.374;2023-05-10T16:03:36;14.90;34.40
12438;DHT22;6283;51.330;12.374;2023-05-10T16:06:04;15.10;5.30
12438;DHT22;6283;51.330;12.374;2023-05-10T16:08:30;15.30;1.00